Time;durP1;ratioP1;P1;durP2;ratioP2;P2;SDS_P1;SDS_P2;PMS_P1;PMS_P2;Temp;Humidity;BMP_temperature;BMP_pressure;BME280_temperature;BME280_humidity;BME280_pressure;Samples;Min_cycle;Max_cycle;Signal;HPM_P1;HPM_P2
2021/10/19 00:00:59;;;;;;;11.90;9.70;;;;;;;;;;4975307;28;20235;-85
2021/10/19 00:03:26;;;;;;;17.53;13.17;;;;;;;;;;4975762;28;20622;-86
2021/10/19 00:05:55;;;;;;;13.37;11.37;;;;;;;;;;4975268;28;20737;-85
2021/10/19 00:08:23;;;;;;;10.20;8.17;;;;;;;;;;4975500;28;20205;-85
2021/10/19 00:10:50;;;;;;;8.73;7.83;;;;;;;;;;4975192;28;20197;-86
2021/10/19 00:13:17;;;;;;;8.53;7.73;;;;;;;;;;4975588;28;20287;-86
2021/10/19 00:15:44;;;;;;;7.23;6.53;;;;;;;;;;4975155;28;20197;-85
2021/10/19 00:18:12;;;;;;;7.53;6.80;;;;;;;;;;4975030;28;20288;-86
2021/10/19 00:20:39;;;;;;;8.57;7.60;;;;;;;;;;4975360;28;20232;-86
2021/10/19 00:23:08;;;;;;;8.07;7.37;;;;;;;;;;4975140;28;20232;-86
2021/10/19 00:25:35;;;;;;;9.20;8.17;;;;;;;;;;4974842;28;20240;-86
2021/10/19 00:28:02;;;;;;;10.90;7.20;;;;;;;;;;4975068;28;20289;-86
2021/10/19 00:30:29;;;;;;;10.03;7.37;;;;;;;;;;4975167;28;20571;-86
2021/10/19 00:32:57;;;;;;;9.03;8.20;;;;;;;;;;4974236;28;20324;-86
2021/10/19 00:35:25;;;;;;;8.00;6.97;;;;;;;;;;4974200;28;20229;-85
2021/10/19 00:37:52;;;;;;;9.83;8.10;;;;;;;;;;4974734;28;20204;-86
2021/10/19 00:40:21;;;;;;;9.50;8.60;;;;;;;;;;4974552;28;21167;-86
2021/10/19 00:42:49;;;;;;;8.10;7.37;;;;;;;;;;4974678;28;20228;-86
2021/10/19 00:45:16;;;;;;;9.17;8.37;;;;;;;;;;4974560;28;20298;-85
2021/10/19 00:47:49;;;;;;;14.13;9.27;;;;;;;;;;4974301;28;20283;-86
2021/10/19 00:50:17;;;;;;;11.43;7.93;;;;;;;;;;4974455;28;20185;-86
2021/10/19 00:52:45;;;;;;;8.27;7.57;;;;;;;;;;4974481;28;20236;-86
2021/10/19 00:55:12;;;;;;;8.87;8.07;;;;;;;;;;4974630;28;20666;-86
2021/10/19 00:57:41;;;;;;;8.90;8.10;;;;;;;;;;4974566;28;20646;-86
2021/10/19 01:00:11;;;;;;;8.63;7.83;;;;;;;;;;4974457;28;20236;-85
2021/10/19 01:02:41;;;;;;;8.63;7.83;;;;;;;;;;4974316;28;20225;-85
2021/10/19 01:05:09;;;;;;;7.97;6.97;;;;;;;;;;4974305;28;20198;-88
2021/10/19 01:07:36;;;;;;;8.07;7.37;;;;;;;;;;4971710;28;20217;-87
2021/10/19 01:10:05;;;;;;;9.10;8.40;;;;;;;;;;4974738;28;20559;-87
2021/10/19 01:12:34;;;;;;;9.83;8.83;;;;;;;;;;4974219;28;20205;-87
2021/10/19 01:15:08;;;;;;;9.43;7.90;;;;;;;;;;4974636;28;20634;-87
2021/10/19 01:17:40;;;;;;;9.33;7.87;;;;;;;;;;4961426;28;20202;-87
2021/10/19 01:20:23;;;;;;;8.97;7.87;;;;;;;;;;4955002;29;20190;-87
2021/10/19 01:22:51;;;;;;;7.80;7.10;;;;;;;;;;4955378;29;20218;-87
2021/10/19 01:25:20;;;;;;;8.33;7.53;;;;;;;;;;4954852;29;20205;-87
2021/10/19 01:27:49;;;;;;;9.13;7.83;;;;;;;;;;4954986;29;20202;-89
2021/10/19 01:30:16;;;;;;;8.90;8.00;;;;;;;;;;4954703;29;20213;-87
2021/10/19 01:32:44;;;;;;;8.03;7.13;;;;;;;;;;4954573;29;20256;-87
2021/10/19 01:35:11;;;;;;;8.13;7.33;;;;;;;;;;4954815;29;20232;-88
2021/10/19 01:37:40;;;;;;;8.50;7.70;;;;;;;;;;4954731;29;20277;-87
2021/10/19 01:40:10;;;;;;;9.07;7.90;;;;;;;;;;4954563;29;20202;-87
2021/10/19 01:42:38;;;;;;;10.70;7.17;;;;;;;;;;4954345;29;20725;-87
2021/10/19 01:45:11;;;;;;;9.23;7.60;;;;;;;;;;4954552;28;20229;-87
2021/10/19 01:47:38;;;;;;;8.50;7.43;;;;;;;;;;4954705;29;20574;-86
2021/10/19 01:50:06;;;;;;;8.10;7.30;;;;;;;;;;4954320;29;20230;-86
2021/10/19 01:52:34;;;;;;;7.90;7.20;;;;;;;;;;4954401;29;20204;-87
2021/10/19 01:55:04;;;;;;;8.10;7.30;;;;;;;;;;4954280;29;20216;-86
2021/10/19 01:57:31;;;;;;;9.93;8.93;;;;;;;;;;4954566;29;20639;-87
2021/10/19 01:59:58;;;;;;;8.57;7.10;;;;;;;;;;4954384;29;20252;-86
2021/10/19 02:02:26;;;;;;;8.93;8.03;;;;;;;;;;4954441;29;20265;-88
2021/10/19 02:04:53;;;;;;;9.37;8.20;;;;;;;;;;4967527;28;20654;-87
2021/10/19 02:07:21;;;;;;;9.73;8.83;;;;;;;;;;4973264;28;20303;-87
2021/10/19 02:09:48;;;;;;;8.47;7.67;;;;;;;;;;4973438;28;20209;-86
2021/10/19 02:12:17;;;;;;;10.13;7.90;;;;;;;;;;4973378;28;20284;-86
2021/10/19 02:14:44;;;;;;;9.57;8.50;;;;;;;;;;4973805;28;20625;-87
2021/10/19 02:17:11;;;;;;;9.40;8.50;;;;;;;;;;4973434;28;20669;-86
2021/10/19 02:19:38;;;;;;;9.30;8.40;;;;;;;;;;4973599;28;20205;-87
2021/10/19 02:22:06;;;;;;;9.60;8.43;;;;;;;;;;4975386;28;20232;-86
2021/10/19 02:24:33;;;;;;;9.03;8.23;;;;;;;;;;4977014;28;20209;-86
2021/10/19 02:27:00;;;;;;;10.90;9.80;;;;;;;;;;4975805;28;20240;-86
2021/10/19 02:29:29;;;;;;;9.83;8.80;;;;;;;;;;4976848;28;20223;-87
2021/10/19 02:31:56;;;;;;;10.83;8.50;;;;;;;;;;4977381;28;20712;-87
2021/10/19 02:34:23;;;;;;;9.23;8.33;;;;;;;;;;4976983;28;20211;-86
2021/10/19 02:36:51;;;;;;;10.07;9.17;;;;;;;;;;4977832;28;20237;-87
2021/10/19 02:39:18;;;;;;;10.13;9.10;;;;;;;;;;4976632;28;20236;-86
2021/10/19 02:41:46;;;;;;;10.00;8.70;;;;;;;;;;4980111;28;20283;-86
2021/10/19 02:44:13;;;;;;;11.90;10.63;;;;;;;;;;4980129;28;20236;-86
2021/10/19 02:46:42;;;;;;;10.93;9.87;;;;;;;;;;4972897;28;20671;-86
2021/10/19 02:49:09;;;;;;;11.40;10.20;;;;;;;;;;4972900;28;20213;-84
2021/10/19 02:51:36;;;;;;;11.70;10.50;;;;;;;;;;4973159;28;20205;-83
2021/10/19 02:54:03;;;;;;;12.30;9.63;;;;;;;;;;4973085;28;20194;-84
2021/10/19 02:56:31;;;;;;;11.23;10.13;;;;;;;;;;4973823;28;20256;-84
2021/10/19 02:58:58;;;;;;;11.23;10.03;;;;;;;;;;4976877;28;20593;-84
2021/10/19 03:01:25;;;;;;;11.47;10.37;;;;;;;;;;4976824;28;20358;-84
2021/10/19 03:03:54;;;;;;;10.03;9.13;;;;;;;;;;4976860;28;20239;-83
2021/10/19 03:06:21;;;;;;;11.67;10.53;;;;;;;;;;4977178;28;20587;-85
2021/10/19 03:08:48;;;;;;;11.43;9.77;;;;;;;;;;4976263;28;20696;-84
2021/10/19 03:11:16;;;;;;;10.63;9.53;;;;;;;;;;4975788;28;20251;-85
2021/10/19 03:13:43;;;;;;;10.53;9.53;;;;;;;;;;4976414;28;20289;-86
2021/10/19 03:16:10;;;;;;;10.37;9.40;;;;;;;;;;4976351;28;20205;-86
2021/10/19 03:18:37;;;;;;;11.47;9.27;;;;;;;;;;4976579;28;20232;-86
2021/10/19 03:21:07;;;;;;;13.03;9.77;;;;;;;;;;4973710;28;20288;-87
2021/10/19 03:23:34;;;;;;;11.03;9.93;;;;;;;;;;4976236;28;20317;-87
2021/10/19 03:26:04;;;;;;;11.13;9.80;;;;;;;;;;4975806;28;20201;-86
2021/10/19 03:28:31;;;;;;;10.23;9.27;;;;;;;;;;4976404;28;20284;-87
2021/10/19 03:30:58;;;;;;;9.93;9.03;;;;;;;;;;4975074;28;20255;-86
2021/10/19 03:33:26;;;;;;;10.47;9.47;;;;;;;;;;4975683;28;20559;-86
2021/10/19 03:35:53;;;;;;;11.40;10.20;;;;;;;;;;4975111;28;20232;-86
2021/10/19 03:38:22;;;;;;;11.60;10.57;;;;;;;;;;4975040;28;20203;-85
2021/10/19 03:40:49;;;;;;;10.57;9.57;;;;;;;;;;4974967;28;20201;-87
2021/10/19 03:43:17;;;;;;;10.80;9.80;;;;;;;;;;4974878;28;20253;-88
2021/10/19 03:45:44;;;;;;;13.60;10.17;;;;;;;;;;4974791;28;20201;-85
2021/10/19 03:48:11;;;;;;;10.70;9.60;;;;;;;;;;4975127;28;20291;-86
2021/10/19 03:50:38;;;;;;;11.00;9.90;;;;;;;;;;4975233;28;20634;-86
2021/10/19 03:53:06;;;;;;;11.07;9.93;;;;;;;;;;4974926;28;20251;-85
2021/10/19 03:55:35;;;;;;;10.17;9.27;;;;;;;;;;4974410;28;20682;-86
2021/10/19 03:58:02;;;;;;;10.80;9.50;;;;;;;;;;4974860;28;20652;-84
2021/10/19 04:00:29;;;;;;;10.87;9.80;;;;;;;;;;4974616;28;20244;-85
2021/10/19 04:02:56;;;;;;;11.63;10.50;;;;;;;;;;4974867;28;20586;-86
2021/10/19 04:05:24;;;;;;;11.77;10.47;;;;;;;;;;4974634;28;20209;-86
2021/10/19 04:07:51;;;;;;;13.20;11.13;;;;;;;;;;4973766;28;20212;-86
2021/10/19 04:10:19;;;;;;;11.07;9.97;;;;;;;;;;4974275;28;20634;-85
2021/10/19 04:12:48;;;;;;;10.57;9.63;;;;;;;;;;4974720;28;20197;-85
2021/10/19 04:15:15;;;;;;;11.80;10.47;;;;;;;;;;4974670;28;20233;-85
2021/10/19 04:17:42;;;;;;;10.03;9.10;;;;;;;;;;4975005;28;20267;-86
2021/10/19 04:20:11;;;;;;;10.40;9.40;;;;;;;;;;4974467;28;20201;-86
2021/10/19 04:22:38;;;;;;;9.97;8.97;;;;;;;;;;4973981;28;20226;-86
2021/10/19 04:25:07;;;;;;;11.60;10.40;;;;;;;;;;4974508;28;20207;-86
2021/10/19 04:27:34;;;;;;;14.77;10.93;;;;;;;;;;4974562;28;20689;-86
2021/10/19 04:30:03;;;;;;;12.07;10.73;;;;;;;;;;4974520;28;20215;-86
2021/10/19 04:32:31;;;;;;;12.80;11.47;;;;;;;;;;4974577;28;20197;-86
2021/10/19 04:34:58;;;;;;;13.80;12.07;;;;;;;;;;4970739;28;20202;-85
2021/10/19 04:37:25;;;;;;;13.63;11.73;;;;;;;;;;4973325;28;20205;-86
2021/10/19 04:39:52;;;;;;;12.70;10.57;;;;;;;;;;4974279;28;20205;-86
2021/10/19 04:42:20;;;;;;;12.50;11.20;;;;;;;;;;4974705;28;20346;-86
2021/10/19 04:44:48;;;;;;;12.50;10.30;;;;;;;;;;4974748;28;20767;-85
2021/10/19 04:47:17;;;;;;;12.57;11.30;;;;;;;;;;4974611;28;20197;-86
2021/10/19 04:49:44;;;;;;;14.27;12.77;;;;;;;;;;4974776;28;20228;-86
2021/10/19 04:52:11;;;;;;;20.13;14.30;;;;;;;;;;4974552;28;20265;-86
2021/10/19 04:54:38;;;;;;;12.87;11.57;;;;;;;;;;4974360;28;20291;-86
2021/10/19 04:57:06;;;;;;;11.00;9.90;;;;;;;;;;4974663;28;20205;-86
2021/10/19 04:59:33;;;;;;;12.27;10.50;;;;;;;;;;4974633;28;20292;-86
2021/10/19 05:02:00;;;;;;;10.63;9.63;;;;;;;;;;4974067;28;20240;-86
2021/10/19 05:04:29;;;;;;;11.43;10.07;;;;;;;;;;4974233;28;20260;-86
2021/10/19 05:06:56;;;;;;;11.93;10.73;;;;;;;;;;4974163;28;20247;-86
2021/10/19 05:09:23;;;;;;;15.57;10.47;;;;;;;;;;4974276;28;20240;-86
2021/10/19 05:11:51;;;;;;;10.87;9.83;;;;;;;;;;4974001;28;20232;-85
2021/10/19 05:14:18;;;;;;;15.67;12.33;;;;;;;;;;4974268;28;20320;-86
2021/10/19 05:16:45;;;;;;;23.07;16.63;;;;;;;;;;4974086;28;20292;-86
2021/10/19 05:19:12;;;;;;;15.10;13.50;;;;;;;;;;4974073;28;20227;-86
2021/10/19 05:21:41;;;;;;;12.73;11.47;;;;;;;;;;4973970;28;20677;-86
2021/10/19 05:24:09;;;;;;;15.57;12.30;;;;;;;;;;4974355;28;20581;-86
2021/10/19 05:26:36;;;;;;;10.70;9.67;;;;;;;;;;4973875;28;20236;-86
2021/10/19 05:29:04;;;;;;;11.20;10.10;;;;;;;;;;4973854;28;20263;-86
2021/10/19 05:31:31;;;;;;;29.40;24.60;;;;;;;;;;4973800;28;20205;-86
2021/10/19 05:33:58;;;;;;;19.07;16.53;;;;;;;;;;4974078;28;20224;-86
2021/10/19 05:36:25;;;;;;;18.67;15.60;;;;;;;;;;4973510;28;20327;-86
2021/10/19 05:38:54;;;;;;;18.60;14.57;;;;;;;;;;4973846;28;20240;-86
2021/10/19 05:41:21;;;;;;;18.50;13.60;;;;;;;;;;4973536;28;20201;-86
2021/10/19 05:43:49;;;;;;;14.00;12.57;;;;;;;;;;4973801;28;20267;-86
2021/10/19 05:46:16;;;;;;;14.10;12.63;;;;;;;;;;4973295;28;20239;-86
2021/10/19 05:48:43;;;;;;;15.17;11.83;;;;;;;;;;4973756;28;20208;-87
2021/10/19 05:51:10;;;;;;;12.33;11.13;;;;;;;;;;4973799;28;20629;-86
2021/10/19 05:53:38;;;;;;;11.77;10.57;;;;;;;;;;4973403;28;20290;-86
2021/10/19 05:56:07;;;;;;;12.37;11.17;;;;;;;;;;4973537;28;20252;-86
2021/10/19 05:58:34;;;;;;;12.90;11.70;;;;;;;;;;4973848;28;20205;-86
2021/10/19 06:01:01;;;;;;;13.20;10.73;;;;;;;;;;4973503;28;20201;-86
2021/10/19 06:03:28;;;;;;;11.30;9.67;;;;;;;;;;4973612;28;20229;-86
2021/10/19 06:05:57;;;;;;;10.10;9.20;;;;;;;;;;4973660;28;20231;-87
2021/10/19 06:08:24;;;;;;;14.50;11.33;;;;;;;;;;4973489;28;20197;-86
2021/10/19 06:10:55;;;;;;;11.23;9.30;;;;;;;;;;4973332;28;20295;-86
2021/10/19 06:13:24;;;;;;;15.67;9.70;;;;;;;;;;4973301;28;20194;-86
2021/10/19 06:15:51;;;;;;;10.87;9.87;;;;;;;;;;4973135;28;20207;-86
2021/10/19 06:18:18;;;;;;;10.90;9.87;;;;;;;;;;4973668;28;20197;-86
2021/10/19 06:20:49;;;;;;;10.13;8.97;;;;;;;;;;4973240;28;20744;-86
2021/10/19 06:23:16;;;;;;;11.77;8.90;;;;;;;;;;4973126;28;20222;-86
2021/10/19 06:25:43;;;;;;;11.03;9.17;;;;;;;;;;4973235;28;20235;-86
2021/10/19 06:28:11;;;;;;;17.50;15.63;;;;;;;;;;4973534;28;20698;-86
2021/10/19 06:30:40;;;;;;;17.93;16.13;;;;;;;;;;4972440;28;20240;-86
2021/10/19 06:33:07;;;;;;;10.50;9.50;;;;;;;;;;4975590;28;20639;-85
2021/10/19 06:35:34;;;;;;;17.67;11.93;;;;;;;;;;4976851;28;20681;-86
2021/10/19 06:38:02;;;;;;;10.83;9.73;;;;;;;;;;4977211;28;20292;-86
2021/10/19 06:40:29;;;;;;;15.47;13.87;;;;;;;;;;4977106;28;20239;-86
2021/10/19 06:42:56;;;;;;;16.53;14.83;;;;;;;;;;4977385;28;20625;-86
2021/10/19 06:45:23;;;;;;;15.03;12.23;;;;;;;;;;4976896;28;20259;-86
2021/10/19 06:47:52;;;;;;;12.57;11.37;;;;;;;;;;4976764;28;20228;-86
2021/10/19 06:50:20;;;;;;;15.30;13.77;;;;;;;;;;4976812;28;20207;-86
2021/10/19 06:52:47;;;;;;;13.13;11.83;;;;;;;;;;4976847;28;20240;-86
2021/10/19 06:55:14;;;;;;;13.90;12.23;;;;;;;;;;4976713;28;20236;-86
2021/10/19 06:57:42;;;;;;;14.40;12.90;;;;;;;;;;4976624;28;20232;-86
2021/10/19 07:00:11;;;;;;;13.23;11.43;;;;;;;;;;4976667;28;20668;-86
2021/10/19 07:02:38;;;;;;;13.97;12.20;;;;;;;;;;4976604;28;20242;-86
2021/10/19 07:05:08;;;;;;;11.33;10.23;;;;;;;;;;4976958;28;20292;-86
2021/10/19 07:07:36;;;;;;;13.87;11.73;;;;;;;;;;4976659;28;20209;-86
2021/10/19 07:10:04;;;;;;;12.17;10.83;;;;;;;;;;4976946;28;20204;-86
2021/10/19 07:12:32;;;;;;;21.90;15.53;;;;;;;;;;4976734;28;20205;-86
2021/10/19 07:14:59;;;;;;;17.90;15.37;;;;;;;;;;4976488;28;20209;-86
2021/10/19 07:17:26;;;;;;;21.30;13.83;;;;;;;;;;4976268;28;20197;-86
2021/10/19 07:19:55;;;;;;;15.87;13.13;;;;;;;;;;4976759;28;20236;-86
2021/10/19 07:22:25;;;;;;;12.23;10.93;;;;;;;;;;4976509;28;20263;-86
2021/10/19 07:24:53;;;;;;;11.03;10.03;;;;;;;;;;4976127;28;20224;-87
2021/10/19 07:27:20;;;;;;;11.10;10.00;;;;;;;;;;4976226;28;20733;-86
2021/10/19 07:29:47;;;;;;;10.63;9.63;;;;;;;;;;4976310;28;20693;-87
2021/10/19 07:32:15;;;;;;;9.20;8.30;;;;;;;;;;4976174;28;20229;-87
2021/10/19 07:34:42;;;;;;;10.97;9.87;;;;;;;;;;4976142;28;20197;-87
2021/10/19 07:37:10;;;;;;;8.87;8.03;;;;;;;;;;4975493;28;20268;-86
2021/10/19 07:39:38;;;;;;;9.97;8.97;;;;;;;;;;4975990;28;20267;-87
2021/10/19 07:42:06;;;;;;;9.47;8.60;;;;;;;;;;4975575;28;20748;-86
2021/10/19 07:44:33;;;;;;;12.30;8.03;;;;;;;;;;4975879;28;20232;-86
2021/10/19 07:47:00;;;;;;;11.60;10.30;;;;;;;;;;4975634;28;20204;-86
2021/10/19 07:49:28;;;;;;;10.30;8.57;;;;;;;;;;4975784;28;20196;-86
2021/10/19 07:51:55;;;;;;;9.60;8.60;;;;;;;;;;4975946;28;20208;-87
2021/10/19 07:54:23;;;;;;;10.70;8.93;;;;;;;;;;4975868;28;20244;-86
2021/10/19 07:56:51;;;;;;;12.20;8.60;;;;;;;;;;4975611;28;20268;-86
2021/10/19 07:59:19;;;;;;;8.80;8.00;;;;;;;;;;4975518;28;20209;-85
2021/10/19 08:01:46;;;;;;;12.40;7.63;;;;;;;;;;4975273;28;20256;-85
2021/10/19 08:04:13;;;;;;;9.27;7.97;;;;;;;;;;4975467;28;20231;-86
2021/10/19 08:06:40;;;;;;;13.13;8.83;;;;;;;;;;4975518;28;20212;-86
2021/10/19 08:09:08;;;;;;;10.20;8.37;;;;;;;;;;4975671;28;20745;-86
2021/10/19 08:11:35;;;;;;;11.73;9.17;;;;;;;;;;4975271;28;20205;-86
2021/10/19 08:14:04;;;;;;;9.13;8.23;;;;;;;;;;4975231;28;20197;-86
2021/10/19 08:16:31;;;;;;;7.53;6.83;;;;;;;;;;4975277;28;20682;-86
2021/10/19 08:18:58;;;;;;;9.20;8.30;;;;;;;;;;4975218;28;20288;-86
2021/10/19 08:21:25;;;;;;;8.37;7.57;;;;;;;;;;4975135;28;20271;-86
2021/10/19 08:23:53;;;;;;;7.97;7.27;;;;;;;;;;4974933;28;20229;-86
2021/10/19 08:26:20;;;;;;;8.97;8.07;;;;;;;;;;4974891;28;20280;-86
2021/10/19 08:28:47;;;;;;;8.97;8.07;;;;;;;;;;4975428;28;20243;-86
2021/10/19 08:31:18;;;;;;;8.73;8.00;;;;;;;;;;4974782;28;20287;-86
2021/10/19 08:33:46;;;;;;;9.20;8.30;;;;;;;;;;4974937;28;20636;-86
2021/10/19 08:36:14;;;;;;;9.80;7.50;;;;;;;;;;4974789;28;20233;-86
2021/10/19 08:38:43;;;;;;;8.97;7.33;;;;;;;;;;4974819;28;20228;-86
2021/10/19 08:41:12;;;;;;;8.57;7.77;;;;;;;;;;4974834;28;20252;-86
2021/10/19 08:43:39;;;;;;;9.57;7.77;;;;;;;;;;4974791;28;20307;-86
2021/10/19 08:46:08;;;;;;;7.93;7.13;;;;;;;;;;4975284;28;20568;-86
2021/10/19 08:48:38;;;;;;;9.23;8.43;;;;;;;;;;4974876;28;20216;-87
2021/10/19 08:51:06;;;;;;;10.07;9.03;;;;;;;;;;4974988;28;20283;-86
2021/10/19 08:53:37;;;;;;;16.40;14.70;;;;;;;;;;4974715;28;20229;-87
2021/10/19 08:56:05;;;;;;;8.97;8.13;;;;;;;;;;4974099;28;20189;-86
2021/10/19 08:58:32;;;;;;;7.07;6.33;;;;;;;;;;4974723;28;20204;-86
2021/10/19 09:01:06;;;;;;;8.80;7.87;;;;;;;;;;4974284;28;20267;-86
2021/10/19 09:03:34;;;;;;;8.23;6.67;;;;;;;;;;4974406;28;20204;-86
2021/10/19 09:06:02;;;;;;;7.13;6.43;;;;;;;;;;4974331;28;20296;-87
2021/10/19 09:08:30;;;;;;;7.37;6.77;;;;;;;;;;4974537;28;20643;-87
2021/10/19 09:10:57;;;;;;;7.07;6.47;;;;;;;;;;4974547;28;20268;-86
2021/10/19 09:13:24;;;;;;;8.50;7.70;;;;;;;;;;4974453;28;20206;-86
2021/10/19 09:15:52;;;;;;;8.03;6.63;;;;;;;;;;4974218;28;20209;-86
2021/10/19 09:18:21;;;;;;;6.63;6.00;;;;;;;;;;4974473;28;20298;-87
2021/10/19 09:20:49;;;;;;;6.80;6.13;;;;;;;;;;4974294;28;20283;-87
2021/10/19 09:23:21;;;;;;;11.80;9.23;;;;;;;;;;4974315;28;20646;-86
2021/10/19 09:25:50;;;;;;;8.37;7.67;;;;;;;;;;4973923;28;20214;-87
2021/10/19 09:28:18;;;;;;;7.87;7.07;;;;;;;;;;4973998;28;20679;-87
2021/10/19 09:30:47;;;;;;;7.27;6.57;;;;;;;;;;4973920;28;20239;-87
2021/10/19 09:33:16;;;;;;;6.20;5.60;;;;;;;;;;4974045;28;20207;-86
2021/10/19 09:35:43;;;;;;;6.67;6.07;;;;;;;;;;4973651;28;20282;-87
2021/10/19 09:38:12;;;;;;;6.63;6.03;;;;;;;;;;4973869;28;20257;-87
2021/10/19 09:40:42;;;;;;;6.60;6.00;;;;;;;;;;4973910;28;20286;-87
2021/10/19 09:43:12;;;;;;;6.80;6.13;;;;;;;;;;4974021;28;20234;-87
2021/10/19 09:45:42;;;;;;;7.13;6.53;;;;;;;;;;4974294;28;20230;-87
2021/10/19 09:48:13;;;;;;;6.57;5.97;;;;;;;;;;4973935;28;20196;-87
2021/10/19 09:50:41;;;;;;;10.60;7.23;;;;;;;;;;4974178;28;20650;-87
2021/10/19 09:53:09;;;;;;;8.27;6.80;;;;;;;;;;4974069;28;20739;-88
2021/10/19 09:55:36;;;;;;;7.27;6.57;;;;;;;;;;4974217;28;20196;-87
2021/10/19 09:58:05;;;;;;;11.80;7.33;;;;;;;;;;4974041;28;20236;-87
2021/10/19 10:00:33;;;;;;;8.13;7.33;;;;;;;;;;4973673;28;20246;-87
2021/10/19 10:03:03;;;;;;;7.63;6.90;;;;;;;;;;4973776;28;20208;-88
2021/10/19 10:05:30;;;;;;;7.80;6.50;;;;;;;;;;4973285;28;20224;-88
2021/10/19 10:07:58;;;;;;;7.83;7.17;;;;;;;;;;4973324;28;20197;-88
2021/10/19 10:10:26;;;;;;;8.17;7.37;;;;;;;;;;4974115;28;20645;-88
2021/10/19 10:13:00;;;;;;;7.53;6.83;;;;;;;;;;4973916;28;20200;-88
2021/10/19 10:15:33;;;;;;;8.13;7.37;;;;;;;;;;4973943;28;20195;-88
2021/10/19 10:18:02;;;;;;;7.93;7.00;;;;;;;;;;4974033;28;20271;-88
2021/10/19 10:20:34;;;;;;;8.97;8.07;;;;;;;;;;4973749;28;20364;-88
2021/10/19 10:23:14;;;;;;;8.60;7.80;;;;;;;;;;4973822;28;20197;-88
2021/10/19 10:25:41;;;;;;;7.43;6.73;;;;;;;;;;4973901;28;20231;-87
2021/10/19 10:28:17;;;;;;;8.20;7.57;;;;;;;;;;4973726;28;20264;-88
2021/10/19 10:30:47;;;;;;;7.87;7.17;;;;;;;;;;4973674;28;20229;-87
2021/10/19 10:33:15;;;;;;;10.60;8.10;;;;;;;;;;4973562;28;20197;-88
2021/10/19 10:35:46;;;;;;;9.57;8.20;;;;;;;;;;4973326;28;20324;-87
2021/10/19 10:38:14;;;;;;;9.50;8.63;;;;;;;;;;4973664;28;20292;-88
2021/10/19 10:40:43;;;;;;;10.37;9.30;;;;;;;;;;4973939;28;20604;-87
2021/10/19 10:43:22;;;;;;;10.00;9.00;;;;;;;;;;4973525;28;20201;-85
2021/10/19 10:46:03;;;;;;;11.40;7.73;;;;;;;;;;4973610;28;20220;-85
2021/10/19 10:48:30;;;;;;;8.60;7.80;;;;;;;;;;4973706;28;20232;-87
2021/10/19 10:50:58;;;;;;;8.17;7.47;;;;;;;;;;4973634;28;20287;-88
2021/10/19 10:53:33;;;;;;;9.47;8.57;;;;;;;;;;4973485;28;20204;-88
2021/10/19 10:56:01;;;;;;;7.70;7.00;;;;;;;;;;4973204;28;20228;-87
2021/10/19 10:58:32;;;;;;;9.33;8.53;;;;;;;;;;4973486;28;20756;-88
2021/10/19 11:01:01;;;;;;;9.53;7.33;;;;;;;;;;4973354;28;20208;-87
2021/10/19 11:03:30;;;;;;;8.27;7.43;;;;;;;;;;4973525;28;20201;-89
2021/10/19 11:05:58;;;;;;;7.37;6.77;;;;;;;;;;4973679;28;20235;-88
2021/10/19 11:08:27;;;;;;;8.00;7.20;;;;;;;;;;4973609;28;20197;-87
2021/10/19 11:11:04;;;;;;;10.10;8.17;;;;;;;;;;4973132;28;20260;-88
2021/10/19 11:13:33;;;;;;;8.03;7.23;;;;;;;;;;4973483;28;20193;-88
2021/10/19 11:16:02;;;;;;;8.80;7.90;;;;;;;;;;4973262;28;20212;-88
2021/10/19 11:18:29;;;;;;;7.47;6.80;;;;;;;;;;4975605;28;20197;-88
2021/10/19 11:20:57;;;;;;;9.43;8.47;;;;;;;;;;4976668;28;20201;-87
2021/10/19 11:23:25;;;;;;;10.90;8.30;;;;;;;;;;4976667;28;20263;-88
2021/10/19 11:25:53;;;;;;;8.90;8.00;;;;;;;;;;4976383;28;20316;-88
2021/10/19 11:28:20;;;;;;;10.13;9.20;;;;;;;;;;4976927;28;20684;-89
2021/10/19 11:30:48;;;;;;;9.17;8.30;;;;;;;;;;4976555;28;20247;-89
2021/10/19 11:33:17;;;;;;;9.80;8.90;;;;;;;;;;4976445;28;20207;-88
2021/10/19 11:35:45;;;;;;;10.03;8.80;;;;;;;;;;4976384;28;20316;-88
2021/10/19 11:38:12;;;;;;;7.40;6.80;;;;;;;;;;4976750;28;20640;-89
2021/10/19 11:40:39;;;;;;;9.27;8.47;;;;;;;;;;4976904;28;20625;-88
2021/10/19 11:43:07;;;;;;;8.00;7.23;;;;;;;;;;4976285;28;20260;-88
2021/10/19 11:45:34;;;;;;;8.80;7.60;;;;;;;;;;4976010;28;20233;-88
2021/10/19 11:48:02;;;;;;;7.63;6.87;;;;;;;;;;4976451;28;20197;-88
2021/10/19 11:50:33;;;;;;;8.90;8.00;;;;;;;;;;4975821;28;20674;-87
2021/10/19 11:53:02;;;;;;;8.77;7.97;;;;;;;;;;4976246;28;20233;-88
2021/10/19 11:55:31;;;;;;;9.07;8.17;;;;;;;;;;4975883;28;20201;-88
2021/10/19 11:58:00;;;;;;;11.93;8.97;;;;;;;;;;4976481;28;20212;-87
2021/10/19 12:00:28;;;;;;;8.77;8.00;;;;;;;;;;4975807;28;20201;-87
2021/10/19 12:02:58;;;;;;;8.30;7.50;;;;;;;;;;4975907;28;20201;-88
2021/10/19 12:05:26;;;;;;;11.97;7.87;;;;;;;;;;4976018;28;20217;-87
2021/10/19 12:07:57;;;;;;;11.40;10.20;;;;;;;;;;4975779;28;20212;-87
2021/10/19 12:10:26;;;;;;;18.10;10.57;;;;;;;;;;4975682;28;20240;-87
2021/10/19 12:12:55;;;;;;;8.37;7.67;;;;;;;;;;4975798;28;20259;-87
2021/10/19 12:15:23;;;;;;;7.90;7.30;;;;;;;;;;4975798;28;20632;-87
2021/10/19 12:17:59;;;;;;;9.67;8.10;;;;;;;;;;4975866;28;20209;-86
2021/10/19 12:20:28;;;;;;;9.90;8.40;;;;;;;;;;4975570;28;20207;-87
2021/10/19 12:23:01;;;;;;;8.90;8.10;;;;;;;;;;4975625;28;20189;-87
2021/10/19 12:25:35;;;;;;;8.00;7.27;;;;;;;;;;4975667;28;20240;-87
2021/10/19 12:28:03;;;;;;;10.00;9.03;;;;;;;;;;4975683;28;20191;-87
2021/10/19 12:30:37;;;;;;;9.93;6.83;;;;;;;;;;4974664;28;20971;-87
2021/10/19 12:33:11;;;;;;;6.47;5.87;;;;;;;;;;4975369;28;20193;-87
2021/10/19 12:35:38;;;;;;;7.60;6.60;;;;;;;;;;4974834;28;20295;-87
2021/10/19 12:38:13;;;;;;;6.33;5.77;;;;;;;;;;4975555;28;20584;-87
2021/10/19 12:40:43;;;;;;;7.07;6.30;;;;;;;;;;4975269;28;20189;-87
2021/10/19 12:43:11;;;;;;;6.87;6.17;;;;;;;;;;4975751;28;20658;-87
2021/10/19 12:45:38;;;;;;;7.23;5.90;;;;;;;;;;4974971;28;20264;-87
2021/10/19 12:48:07;;;;;;;6.67;6.13;;;;;;;;;;4974921;28;20247;-88
2021/10/19 12:50:34;;;;;;;6.93;6.33;;;;;;;;;;4975061;28;20205;-87
2021/10/19 12:53:02;;;;;;;8.03;7.27;;;;;;;;;;4975309;28;20580;-88
2021/10/19 12:55:30;;;;;;;7.67;6.40;;;;;;;;;;4974927;28;20201;-87
2021/10/19 12:57:58;;;;;;;8.17;7.37;;;;;;;;;;4975178;28;20254;-87
2021/10/19 13:00:26;;;;;;;7.77;7.07;;;;;;;;;;4974912;28;20209;-88
2021/10/19 13:02:53;;;;;;;9.20;8.10;;;;;;;;;;4975364;28;20205;-88
2021/10/19 13:05:21;;;;;;;6.47;5.87;;;;;;;;;;4974934;28;20229;-87
2021/10/19 13:07:49;;;;;;;12.17;7.40;;;;;;;;;;4974695;28;20201;-87
2021/10/19 13:10:16;;;;;;;24.73;18.57;;;;;;;;;;4974618;28;20280;-88
2021/10/19 13:12:45;;;;;;;7.17;6.47;;;;;;;;;;4974657;28;20212;-87
2021/10/19 13:15:12;;;;;;;7.60;6.90;;;;;;;;;;4974719;28;20193;-87
2021/10/19 13:17:39;;;;;;;10.03;8.50;;;;;;;;;;4974394;28;20212;-87
2021/10/19 13:20:08;;;;;;;11.80;10.67;;;;;;;;;;4974602;28;20649;-87
2021/10/19 13:22:35;;;;;;;9.40;8.43;;;;;;;;;;4974483;28;20204;-87
2021/10/19 13:25:03;;;;;;;12.97;10.30;;;;;;;;;;4974359;28;20267;-87
2021/10/19 13:27:30;;;;;;;8.30;7.50;;;;;;;;;;4974091;28;20205;-87
2021/10/19 13:29:58;;;;;;;7.33;6.40;;;;;;;;;;4974289;28;20228;-87
2021/10/19 13:32:26;;;;;;;9.07;8.17;;;;;;;;;;4973930;28;20263;-87
2021/10/19 13:34:53;;;;;;;13.07;11.57;;;;;;;;;;4973906;28;20209;-87
2021/10/19 13:37:21;;;;;;;14.00;12.70;;;;;;;;;;4974117;28;20204;-87
2021/10/19 13:39:49;;;;;;;20.90;15.43;;;;;;;;;;4974403;28;20212;-87
2021/10/19 13:42:17;;;;;;;10.53;9.60;;;;;;;;;;4973715;28;20237;-87
2021/10/19 13:44:44;;;;;;;24.63;20.90;;;;;;;;;;4973791;28;20189;-87
2021/10/19 13:47:13;;;;;;;13.17;11.77;;;;;;;;;;4973891;28;20228;-87
2021/10/19 13:49:40;;;;;;;8.90;7.87;;;;;;;;;;4973850;28;20720;-87
2021/10/19 13:52:07;;;;;;;10.90;9.90;;;;;;;;;;4973799;28;20286;-87
2021/10/19 13:54:36;;;;;;;8.77;7.97;;;;;;;;;;4973791;28;20243;-87
2021/10/19 13:57:03;;;;;;;10.20;9.20;;;;;;;;;;4973883;28;20205;-87
2021/10/19 13:59:31;;;;;;;8.90;8.10;;;;;;;;;;4973670;28;20267;-87
2021/10/19 14:01:58;;;;;;;9.67;7.37;;;;;;;;;;4973479;28;20209;-87
2021/10/19 14:04:27;;;;;;;7.73;7.03;;;;;;;;;;4974032;28;20615;-87
2021/10/19 14:06:55;;;;;;;8.23;6.47;;;;;;;;;;4973552;28;20236;-87
2021/10/19 14:09:24;;;;;;;8.07;5.63;;;;;;;;;;4973997;28;20633;-87
2021/10/19 14:11:51;;;;;;;13.07;10.67;;;;;;;;;;4973422;28;20201;-87
2021/10/19 14:14:18;;;;;;;7.70;7.00;;;;;;;;;;4973603;28;20295;-87
2021/10/19 14:16:46;;;;;;;6.57;5.93;;;;;;;;;;4973400;28;20759;-87
2021/10/19 14:19:13;;;;;;;5.20;4.67;;;;;;;;;;4973836;28;20645;-87
2021/10/19 14:21:42;;;;;;;6.57;5.20;;;;;;;;;;4973507;28;20197;-87
2021/10/19 14:24:10;;;;;;;6.30;5.70;;;;;;;;;;4973599;28;20205;-87
2021/10/19 14:26:38;;;;;;;4.70;4.27;;;;;;;;;;4973281;28;20601;-87
2021/10/19 14:29:05;;;;;;;4.87;4.37;;;;;;;;;;4973526;28;20681;-87
2021/10/19 14:31:33;;;;;;;5.90;5.03;;;;;;;;;;4973373;28;20251;-87
2021/10/19 14:34:00;;;;;;;8.03;7.20;;;;;;;;;;4973440;28;20625;-87
2021/10/19 14:36:28;;;;;;;20.23;16.97;;;;;;;;;;4973228;28;20232;-87
2021/10/19 14:38:56;;;;;;;29.13;21.70;;;;;;;;;;4973356;28;20228;-87